sensor_id;sensor_type;location;lat;lon;timestamp;temperature;humidity
11497;DHT22;5805;51.542;7.230;2023-08-01T00:00:30;19.20;99.90
11497;DHT22;5805;51.542;7.230;2023-08-01T00:02:55;19.20;99.90
11497;DHT22;5805;51.542;7.230;2023-08-01T00:05:21;19.10;99.90
11497;DHT22;5805;51.542;7.230;2023-08-01T00:07:48;19.10;99.90
11497;DHT22;5805;51.542;7.230;2023-08-01T00:10:14;19.10;99.90
11497;DHT22;5805;51.542;7.230;2023-08-01T00:12:40;19.00;99.90
11497;DHT22;5805;51.542;7.230;2023-08-01T00:15:06;19.00;99.90
11497;DHT22;5805;51.542;7.230;2023-08-01T00:17:32;19.00;99.90
11497;DHT22;5805;51.542;7.230;2023-08-01T00:19:58;19.00;99.90
11497;DHT22;5805;51.542;7.230;2023-08-01T00:22:24;19.00;99.90
11497;DHT22;5805;51.542;7.230;2023-08-01T00:24:51;19.00;99.90
11497;DHT22;5805;51.542;7.230;2023-08-01T00:27:16;19.00;99.90
11497;DHT22;5805;51.542;7.230;2023-08-01T00:29:42;19.00;99.90
11497;DHT22;5805;51.542;7.230;2023-08-01T00:32:08;19.00;99.90
11497;DHT22;5805;51.542;7.230;2023-08-01T00:34:34;19.00;99.90
11497;DHT22;5805;51.542;7.230;2023-08-01T00:36:59;19.00;99.90
11497;DHT22;5805;51.542;7.230;2023-08-01T00:39:25;18.90;99.90
11497;DHT22;5805;51.542;7.230;2023-08-01T00:41:52;18.90;99.90
11497;DHT22;5805;51.542;7.230;2023-08-01T00:44:18;18.80;99.90
11497;DHT22;5805;51.542;7.230;2023-08-01T00:46:44;18.80;99.90
11497;DHT22;5805;51.542;7.230;2023-08-01T00:49:10;18.80;99.90
11497;DHT22;5805;51.542;7.230;2023-08-01T00:51:35;18.80;99.90
11497;DHT22;5805;51.542;7.230;2023-08-01T00:54:01;18.80;99.90
11497;DHT22;5805;51.542;7.230;2023-08-01T00:56:27;18.90;99.90
11497;DHT22;5805;51.542;7.230;2023-08-01T00:58:54;18.90;99.90
11497;DHT22;5805;51.542;7.230;2023-08-01T01:01:20;18.80;99.90
11497;DHT22;5805;51.542;7.230;2023-08-01T01:03:46;18.80;99.90
11497;DHT22;5805;51.542;7.230;2023-08-01T01:06:16;18.80;99.90
11497;DHT22;5805;51.542;7.230;2023-08-01T01:08:43;18.80;99.90
11497;DHT22;5805;51.542;7.230;2023-08-01T01:11:08;18.80;99.90
11497;DHT22;5805;51.542;7.230;2023-08-01T01:13:34;18.80;99.90
11497;DHT22;5805;51.542;7.230;2023-08-01T01:16:01;18.80;99.90
11497;DHT22;5805;51.542;7.230;2023-08-01T01:18:27;18.80;99.90
11497;DHT22;5805;51.542;7.230;2023-08-01T01:20:54;18.80;99.90
11497;DHT22;5805;51.542;7.230;2023-08-01T01:23:20;18.90;99.90
11497;DHT22;5805;51.542;7.230;2023-08-01T01:25:47;18.90;99.90
11497;DHT22;5805;51.542;7.230;2023-08-01T01:28:14;18.90;99.90
11497;DHT22;5805;51.542;7.230;2023-08-01T01:30:42;18.90;99.90
11497;DHT22;5805;51.542;7.230;2023-08-01T01:33:09;18.80;99.90
11497;DHT22;5805;51.542;7.230;2023-08-01T01:35:35;18.80;99.90
11497;DHT22;5805;51.542;7.230;2023-08-01T01:38:02;18.80;99.90
11497;DHT22;5805;51.542;7.230;2023-08-01T01:40:28;18.80;99.90
11497;DHT22;5805;51.542;7.230;2023-08-01T01:42:53;18.80;99.90
11497;DHT22;5805;51.542;7.230;2023-08-01T01:45:19;18.80;99.90
11497;DHT22;5805;51.542;7.230;2023-08-01T01:47:45;18.70;99.90
11497;DHT22;5805;51.542;7.230;2023-08-01T01:50:11;18.70;99.90
11497;DHT22;5805;51.542;7.230;2023-08-01T01:52:36;18.70;99.90
11497;DHT22;5805;51.542;7.230;2023-08-01T01:55:04;18.70;99.90
11497;DHT22;5805;51.542;7.230;2023-08-01T01:57:30;18.70;99.90
11497;DHT22;5805;51.542;7.230;2023-08-01T01:59:55;18.60;99.90
11497;DHT22;5805;51.542;7.230;2023-08-01T02:02:21;18.60;99.90
11497;DHT22;5805;51.542;7.230;2023-08-01T02:04:47;18.60;99.90
11497;DHT22;5805;51.542;7.230;2023-08-01T02:07:13;18.50;99.90
11497;DHT22;5805;51.542;7.230;2023-08-01T02:09:39;18.60;99.90
11497;DHT22;5805;51.542;7.230;2023-08-01T02:12:07;18.60;99.90
11497;DHT22;5805;51.542;7.230;2023-08-01T02:14:33;18.60;99.90
11497;DHT22;5805;51.542;7.230;2023-08-01T02:16:59;18.60;99.90
11497;DHT22;5805;51.542;7.230;2023-08-01T02:19:25;18.60;99.90
11497;DHT22;5805;51.542;7.230;2023-08-01T02:21:50;18.60;99.90
11497;DHT22;5805;51.542;7.230;2023-08-01T02:24:16;18.60;99.90
11497;DHT22;5805;51.542;7.230;2023-08-01T02:26:42;18.60;99.90
11497;DHT22;5805;51.542;7.230;2023-08-01T02:29:09;18.60;99.90
11497;DHT22;5805;51.542;7.230;2023-08-01T02:31:34;18.60;99.90
11497;DHT22;5805;51.542;7.230;2023-08-01T02:34:00;18.60;99.90
11497;DHT22;5805;51.542;7.230;2023-08-01T02:36:26;18.60;99.90
11497;DHT22;5805;51.542;7.230;2023-08-01T02:38:51;18.60;99.90
11497;DHT22;5805;51.542;7.230;2023-08-01T02:41:17;18.60;99.90
11497;DHT22;5805;51.542;7.230;2023-08-01T02:43:43;18.60;99.90
11497;DHT22;5805;51.542;7.230;2023-08-01T02:46:10;18.60;99.90
11497;DHT22;5805;51.542;7.230;2023-08-01T02:48:36;18.70;99.90
11497;DHT22;5805;51.542;7.230;2023-08-01T02:51:02;18.60;99.90
11497;DHT22;5805;51.542;7.230;2023-08-01T02:53:28;18.60;99.90
11497;DHT22;5805;51.542;7.230;2023-08-01T02:55:53;18.60;99.90
11497;DHT22;5805;51.542;7.230;2023-08-01T02:58:19;18.60;99.90
11497;DHT22;5805;51.542;7.230;2023-08-01T03:00:45;18.60;99.90
11497;DHT22;5805;51.542;7.230;2023-08-01T03:03:12;18.60;99.90
11497;DHT22;5805;51.542;7.230;2023-08-01T03:05:38;18.50;99.90
11497;DHT22;5805;51.542;7.230;2023-08-01T03:08:04;18.50;99.90
11497;DHT22;5805;51.542;7.230;2023-08-01T03:10:30;18.50;99.90
11497;DHT22;5805;51.542;7.230;2023-08-01T03:12:55;18.50;99.90
11497;DHT22;5805;51.542;7.230;2023-08-01T03:15:21;18.50;99.90
11497;DHT22;5805;51.542;7.230;2023-08-01T03:17:47;18.40;99.90
11497;DHT22;5805;51.542;7.230;2023-08-01T03:20:14;18.40;99.90
11497;DHT22;5805;51.542;7.230;2023-08-01T03:22:40;18.50;99.90
11497;DHT22;5805;51.542;7.230;2023-08-01T03:25:07;18.50;99.90
11497;DHT22;5805;51.542;7.230;2023-08-01T03:27:33;18.50;99.90
11497;DHT22;5805;51.542;7.230;2023-08-01T03:29:59;18.50;99.90
11497;DHT22;5805;51.542;7.230;2023-08-01T03:32:25;18.50;99.90
11497;DHT22;5805;51.542;7.230;2023-08-01T03:34:50;18.50;99.90
11497;DHT22;5805;51.542;7.230;2023-08-01T03:37:18;18.50;99.90
11497;DHT22;5805;51.542;7.230;2023-08-01T03:39:43;18.50;99.90
11497;DHT22;5805;51.542;7.230;2023-08-01T03:42:09;18.50;99.90
11497;DHT22;5805;51.542;7.230;2023-08-01T03:44:35;18.50;99.90
11497;DHT22;5805;51.542;7.230;2023-08-01T03:47:01;18.50;99.90
11497;DHT22;5805;51.542;7.230;2023-08-01T03:49:26;18.50;99.90
11497;DHT22;5805;51.542;7.230;2023-08-01T03:51:52;18.40;99.90
11497;DHT22;5805;51.542;7.230;2023-08-01T03:54:19;18.40;99.90
11497;DHT22;5805;51.542;7.230;2023-08-01T03:56:45;18.40;99.90
11497;DHT22;5805;51.542;7.230;2023-08-01T03:59:11;18.40;99.90
11497;DHT22;5805;51.542;7.230;2023-08-01T04:01:37;18.40;99.90
11497;DHT22;5805;51.542;7.230;2023-08-01T04:04:03;18.40;99.90
11497;DHT22;5805;51.542;7.230;2023-08-01T04:06:28;18.40;99.90
11497;DHT22;5805;51.542;7.230;2023-08-01T04:08:54;18.30;99.90
11497;DHT22;5805;51.542;7.230;2023-08-01T04:11:21;18.30;99.90
11497;DHT22;5805;51.542;7.230;2023-08-01T04:13:47;18.30;99.90
11497;DHT22;5805;51.542;7.230;2023-08-01T04:16:12;18.20;99.90
11497;DHT22;5805;51.542;7.230;2023-08-01T04:18:38;18.20;99.90
11497;DHT22;5805;51.542;7.230;2023-08-01T04:21:04;18.20;99.90
11497;DHT22;5805;51.542;7.230;2023-08-01T04:23:30;18.20;99.90
11497;DHT22;5805;51.542;7.230;2023-08-01T04:25:55;18.20;99.90
11497;DHT22;5805;51.542;7.230;2023-08-01T04:28:22;18.20;99.90
11497;DHT22;5805;51.542;7.230;2023-08-01T04:30:51;18.20;99.90
11497;DHT22;5805;51.542;7.230;2023-08-01T04:33:16;18.20;99.90
11497;DHT22;5805;51.542;7.230;2023-08-01T04:35:42;18.20;99.90
11497;DHT22;5805;51.542;7.230;2023-08-01T04:38:08;18.20;99.90
11497;DHT22;5805;51.542;7.230;2023-08-01T04:40:34;18.20;99.90
11497;DHT22;5805;51.542;7.230;2023-08-01T04:43:00;18.20;99.90
11497;DHT22;5805;51.542;7.230;2023-08-01T04:45:27;18.20;99.90
11497;DHT22;5805;51.542;7.230;2023-08-01T04:47:53;18.30;99.90
11497;DHT22;5805;51.542;7.230;2023-08-01T04:50:19;18.30;99.90
11497;DHT22;5805;51.542;7.230;2023-08-01T04:52:44;18.30;99.90
11497;DHT22;5805;51.542;7.230;2023-08-01T04:55:10;18.30;99.90
11497;DHT22;5805;51.542;7.230;2023-08-01T04:57:36;18.30;99.90
11497;DHT22;5805;51.542;7.230;2023-08-01T05:00:02;18.30;99.90
11497;DHT22;5805;51.542;7.230;2023-08-01T05:02:29;18.40;99.90
11497;DHT22;5805;51.542;7.230;2023-08-01T05:04:54;18.30;99.90
11497;DHT22;5805;51.542;7.230;2023-08-01T05:07:20;18.30;99.90
11497;DHT22;5805;51.542;7.230;2023-08-01T05:09:46;18.30;99.90
11497;DHT22;5805;51.542;7.230;2023-08-01T05:12:12;18.30;99.90
11497;DHT22;5805;51.542;7.230;2023-08-01T05:14:37;18.30;99.90
11497;DHT22;5805;51.542;7.230;2023-08-01T05:17:04;18.30;99.90
11497;DHT22;5805;51.542;7.230;2023-08-01T05:19:31;18.30;99.90
11497;DHT22;5805;51.542;7.230;2023-08-01T05:21:57;18.30;99.90
11497;DHT22;5805;51.542;7.230;2023-08-01T05:24:22;18.30;99.90
11497;DHT22;5805;51.542;7.230;2023-08-01T05:26:48;18.30;99.90
11497;DHT22;5805;51.542;7.230;2023-08-01T05:29:14;18.30;99.90
11497;DHT22;5805;51.542;7.230;2023-08-01T05:31:39;18.40;99.90
11497;DHT22;5805;51.542;7.230;2023-08-01T05:34:05;18.40;99.90
11497;DHT22;5805;51.542;7.230;2023-08-01T05:36:32;18.50;99.90
11497;DHT22;5805;51.542;7.230;2023-08-01T05:38:58;18.50;99.90
11497;DHT22;5805;51.542;7.230;2023-08-01T05:41:23;18.50;99.90
11497;DHT22;5805;51.542;7.230;2023-08-01T05:43:49;18.50;99.90
11497;DHT22;5805;51.542;7.230;2023-08-01T05:46:15;18.50;99.90
11497;DHT22;5805;51.542;7.230;2023-08-01T05:48:41;18.50;99.90
11497;DHT22;5805;51.542;7.230;2023-08-01T05:51:06;18.50;99.90
11497;DHT22;5805;51.542;7.230;2023-08-01T05:53:34;18.50;99.90
11497;DHT22;5805;51.542;7.230;2023-08-01T05:55:59;18.50;99.90
11497;DHT22;5805;51.542;7.230;2023-08-01T05:58:25;18.50;99.90
11497;DHT22;5805;51.542;7.230;2023-08-01T06:00:51;18.50;99.90
11497;DHT22;5805;51.542;7.230;2023-08-01T06:03:16;18.50;99.90
11497;DHT22;5805;51.542;7.230;2023-08-01T06:05:42;18.50;99.90
11497;DHT22;5805;51.542;7.230;2023-08-01T06:08:08;18.60;99.90
11497;DHT22;5805;51.542;7.230;2023-08-01T06:10:35;18.60;99.90
11497;DHT22;5805;51.542;7.230;2023-08-01T06:13:01;18.60;99.90
11497;DHT22;5805;51.542;7.230;2023-08-01T06:15:27;18.60;99.90
11497;DHT22;5805;51.542;7.230;2023-08-01T06:17:53;18.60;99.90
11497;DHT22;5805;51.542;7.230;2023-08-01T06:20:18;18.50;99.90
11497;DHT22;5805;51.542;7.230;2023-08-01T06:22:44;18.50;99.90
11497;DHT22;5805;51.542;7.230;2023-08-01T06:25:10;18.50;99.90
11497;DHT22;5805;51.542;7.230;2023-08-01T06:27:37;18.60;99.90
11497;DHT22;5805;51.542;7.230;2023-08-01T06:30:04;18.60;99.90
11497;DHT22;5805;51.542;7.230;2023-08-01T06:32:29;18.60;99.90
11497;DHT22;5805;51.542;7.230;2023-08-01T06:34:55;18.60;99.90
11497;DHT22;5805;51.542;7.230;2023-08-01T06:37:21;18.70;99.90
11497;DHT22;5805;51.542;7.230;2023-08-01T06:39:46;18.70;99.90
11497;DHT22;5805;51.542;7.230;2023-08-01T06:42:12;18.80;99.90
11497;DHT22;5805;51.542;7.230;2023-08-01T06:44:40;18.90;99.90
11497;DHT22;5805;51.542;7.230;2023-08-01T06:47:05;18.90;99.90
11497;DHT22;5805;51.542;7.230;2023-08-01T06:49:31;19.00;99.90
11497;DHT22;5805;51.542;7.230;2023-08-01T06:51:57;19.10;99.90
11497;DHT22;5805;51.542;7.230;2023-08-01T06:54:22;19.30;99.90
11497;DHT22;5805;51.542;7.230;2023-08-01T06:56:48;19.50;99.90
11497;DHT22;5805;51.542;7.230;2023-08-01T06:59:14;19.50;99.90
11497;DHT22;5805;51.542;7.230;2023-08-01T07:01:41;19.60;99.90
11497;DHT22;5805;51.542;7.230;2023-08-01T07:04:07;19.60;99.90
11497;DHT22;5805;51.542;7.230;2023-08-01T07:06:33;19.60;99.90
11497;DHT22;5805;51.542;7.230;2023-08-01T07:08:58;19.60;99.90
11497;DHT22;5805;51.542;7.230;2023-08-01T07:11:24;19.60;99.90
11497;DHT22;5805;51.542;7.230;2023-08-01T07:13:50;19.50;99.90
11497;DHT22;5805;51.542;7.230;2023-08-01T07:16:15;19.50;99.90
11497;DHT22;5805;51.542;7.230;2023-08-01T07:18:43;19.50;99.90
11497;DHT22;5805;51.542;7.230;2023-08-01T07:21:08;19.40;99.90
11497;DHT22;5805;51.542;7.230;2023-08-01T07:23:34;19.40;99.90
11497;DHT22;5805;51.542;7.230;2023-08-01T07:26:00;19.40;99.90
11497;DHT22;5805;51.542;7.230;2023-08-01T07:28:26;19.40;99.90
11497;DHT22;5805;51.542;7.230;2023-08-01T07:30:58;19.40;99.90
11497;DHT22;5805;51.542;7.230;2023-08-01T07:33:24;19.40;99.90
11497;DHT22;5805;51.542;7.230;2023-08-01T07:35:51;19.40;99.90
11497;DHT22;5805;51.542;7.230;2023-08-01T07:38:17;19.50;99.90
11497;DHT22;5805;51.542;7.230;2023-08-01T07:40:43;19.50;99.90
11497;DHT22;5805;51.542;7.230;2023-08-01T07:43:08;19.60;99.90
11497;DHT22;5805;51.542;7.230;2023-08-01T07:45:34;19.90;99.90
11497;DHT22;5805;51.542;7.230;2023-08-01T07:48:00;20.40;99.90
11497;DHT22;5805;51.542;7.230;2023-08-01T07:50:26;20.60;99.90
11497;DHT22;5805;51.542;7.230;2023-08-01T07:52:53;20.60;99.90
11497;DHT22;5805;51.542;7.230;2023-08-01T07:55:19;20.50;99.90
11497;DHT22;5805;51.542;7.230;2023-08-01T07:57:44;20.50;99.90
11497;DHT22;5805;51.542;7.230;2023-08-01T08:00:11;20.60;99.90
11497;DHT22;5805;51.542;7.230;2023-08-01T08:02:37;20.70;99.90
11497;DHT22;5805;51.542;7.230;2023-08-01T08:05:02;21.00;99.90
11497;DHT22;5805;51.542;7.230;2023-08-01T08:07:28;21.50;99.90
11497;DHT22;5805;51.542;7.230;2023-08-01T08:09:55;21.60;99.90
11497;DHT22;5805;51.542;7.230;2023-08-01T08:12:22;21.60;99.90
11497;DHT22;5805;51.542;7.230;2023-08-01T08:14:48;21.70;99.90
11497;DHT22;5805;51.542;7.230;2023-08-01T08:17:13;21.70;99.90
11497;DHT22;5805;51.542;7.230;2023-08-01T08:19:39;21.50;99.90
11497;DHT22;5805;51.542;7.230;2023-08-01T08:22:05;21.40;99.90
11497;DHT22;5805;51.542;7.230;2023-08-01T08:24:31;21.50;99.90
11497;DHT22;5805;51.542;7.230;2023-08-01T08:26:58;21.50;99.90
11497;DHT22;5805;51.542;7.230;2023-08-01T08:29:24;21.40;99.90
11497;DHT22;5805;51.542;7.230;2023-08-01T08:31:50;21.20;99.90
11497;DHT22;5805;51.542;7.230;2023-08-01T08:34:15;20.90;99.90
11497;DHT22;5805;51.542;7.230;2023-08-01T08:36:41;20.80;99.90
11497;DHT22;5805;51.542;7.230;2023-08-01T08:39:07;20.70;99.90
11497;DHT22;5805;51.542;7.230;2023-08-01T08:41:38;21.60;99.90
11497;DHT22;5805;51.542;7.230;2023-08-01T08:44:07;22.70;99.90
11497;DHT22;5805;51.542;7.230;2023-08-01T08:46:38;22.70;99.90
11497;DHT22;5805;51.542;7.230;2023-08-01T08:49:07;22.30;99.90
11497;DHT22;5805;51.542;7.230;2023-08-01T08:51:33;21.80;99.90
11497;DHT22;5805;51.542;7.230;2023-08-01T08:54:00;21.50;99.90
11497;DHT22;5805;51.542;7.230;2023-08-01T08:56:27;21.50;99.90
11497;DHT22;5805;51.542;7.230;2023-08-01T08:58:54;21.60;99.90
11497;DHT22;5805;51.542;7.230;2023-08-01T09:01:21;21.90;99.90
11497;DHT22;5805;51.542;7.230;2023-08-01T09:03:47;22.20;99.90
11497;DHT22;5805;51.542;7.230;2023-08-01T09:06:15;22.40;99.90
11497;DHT22;5805;51.542;7.230;2023-08-01T09:08:46;22.40;99.90
11497;DHT22;5805;51.542;7.230;2023-08-01T09:11:13;22.00;99.90
11497;DHT22;5805;51.542;7.230;2023-08-01T09:13:39;21.60;99.90
11497;DHT22;5805;51.542;7.230;2023-08-01T09:16:06;21.80;99.90
11497;DHT22;5805;51.542;7.230;2023-08-01T09:18:35;22.20;99.90
11497;DHT22;5805;51.542;7.230;2023-08-01T09:21:00;22.60;99.90
11497;DHT22;5805;51.542;7.230;2023-08-01T09:23:26;22.80;99.90
11497;DHT22;5805;51.542;7.230;2023-08-01T09:25:52;22.90;99.90
11497;DHT22;5805;51.542;7.230;2023-08-01T09:28:19;22.90;99.90
11497;DHT22;5805;51.542;7.230;2023-08-01T09:30:47;23.00;99.90
11497;DHT22;5805;51.542;7.230;2023-08-01T09:33:12;23.10;99.90
11497;DHT22;5805;51.542;7.230;2023-08-01T09:35:40;23.30;99.90
11497;DHT22;5805;51.542;7.230;2023-08-01T09:38:05;23.30;99.90
11497;DHT22;5805;51.542;7.230;2023-08-01T09:40:36;23.10;99.90
11497;DHT22;5805;51.542;7.230;2023-08-01T09:43:01;22.80;99.90
11497;DHT22;5805;51.542;7.230;2023-08-01T09:45:27;22.50;99.90
11497;DHT22;5805;51.542;7.230;2023-08-01T09:47:53;22.40;99.90
11497;DHT22;5805;51.542;7.230;2023-08-01T09:50:23;22.30;99.90
11497;DHT22;5805;51.542;7.230;2023-08-01T09:52:50;22.30;99.90
11497;DHT22;5805;51.542;7.230;2023-08-01T09:55:16;22.60;99.90
11497;DHT22;5805;51.542;7.230;2023-08-01T09:57:42;22.90;99.90
11497;DHT22;5805;51.542;7.230;2023-08-01T10:00:11;23.00;99.90
11497;DHT22;5805;51.542;7.230;2023-08-01T10:02:38;23.20;99.90
11497;DHT22;5805;51.542;7.230;2023-08-01T10:05:07;23.40;99.90
11497;DHT22;5805;51.542;7.230;2023-08-01T10:07:34;23.80;99.90
11497;DHT22;5805;51.542;7.230;2023-08-01T10:10:02;24.20;99.90
11497;DHT22;5805;51.542;7.230;2023-08-01T10:12:28;24.40;99.90
11497;DHT22;5805;51.542;7.230;2023-08-01T10:14:55;24.50;99.90
11497;DHT22;5805;51.542;7.230;2023-08-01T10:17:21;24.50;99.90
11497;DHT22;5805;51.542;7.230;2023-08-01T10:19:49;24.50;99.90
11497;DHT22;5805;51.542;7.230;2023-08-01T10:22:15;24.40;99.90
11497;DHT22;5805;51.542;7.230;2023-08-01T10:24:41;23.70;99.90
11497;DHT22;5805;51.542;7.230;2023-08-01T10:27:14;23.10;99.90
11497;DHT22;5805;51.542;7.230;2023-08-01T10:29:40;22.70;99.90
11497;DHT22;5805;51.542;7.230;2023-08-01T10:32:07;22.50;99.90
11497;DHT22;5805;51.542;7.230;2023-08-01T10:34:33;22.40;99.90
11497;DHT22;5805;51.542;7.230;2023-08-01T10:36:59;22.40;99.90
11497;DHT22;5805;51.542;7.230;2023-08-01T10:39:25;22.20;99.90
11497;DHT22;5805;51.542;7.230;2023-08-01T10:42:01;22.10;99.90
11497;DHT22;5805;51.542;7.230;2023-08-01T10:44:29;22.10;99.90
11497;DHT22;5805;51.542;7.230;2023-08-01T10:46:56;22.10;99.90
11497;DHT22;5805;51.542;7.230;2023-08-01T10:49:34;22.10;99.90
11497;DHT22;5805;51.542;7.230;2023-08-01T10:52:00;22.00;99.90
11497;DHT22;5805;51.542;7.230;2023-08-01T10:54:26;22.00;99.90
11497;DHT22;5805;51.542;7.230;2023-08-01T10:56:53;22.10;99.90
11497;DHT22;5805;51.542;7.230;2023-08-01T10:59:20;22.20;99.90
11497;DHT22;5805;51.542;7.230;2023-08-01T11:01:48;22.30;99.90
11497;DHT22;5805;51.542;7.230;2023-08-01T11:04:15;22.10;99.90
11497;DHT22;5805;51.542;7.230;2023-08-01T11:06:45;21.80;99.90
11497;DHT22;5805;51.542;7.230;2023-08-01T11:09:19;21.50;99.90
11497;DHT22;5805;51.542;7.230;2023-08-01T11:11:45;21.00;99.90
11497;DHT22;5805;51.542;7.230;2023-08-01T11:14:12;20.60;99.90
11497;DHT22;5805;51.542;7.230;2023-08-01T11:16:38;20.10;99.90
11497;DHT22;5805;51.542;7.230;2023-08-01T11:19:05;19.90;99.90
11497;DHT22;5805;51.542;7.230;2023-08-01T11:21:31;19.80;99.90
11497;DHT22;5805;51.542;7.230;2023-08-01T11:23:56;20.00;99.90
11497;DHT22;5805;51.542;7.230;2023-08-01T11:26:22;20.30;99.90
11497;DHT22;5805;51.542;7.230;2023-08-01T11:28:48;20.70;99.90
11497;DHT22;5805;51.542;7.230;2023-08-01T11:31:14;21.00;99.90
11497;DHT22;5805;51.542;7.230;2023-08-01T11:33:40;21.30;99.90
11497;DHT22;5805;51.542;7.230;2023-08-01T11:36:08;21.70;99.90
11497;DHT22;5805;51.542;7.230;2023-08-01T11:38:34;22.20;99.90
11497;DHT22;5805;51.542;7.230;2023-08-01T11:41:01;22.50;99.90
11497;DHT22;5805;51.542;7.230;2023-08-01T11:43:38;22.80;99.90
11497;DHT22;5805;51.542;7.230;2023-08-01T11:46:03;23.00;99.90
11497;DHT22;5805;51.542;7.230;2023-08-01T11:48:29;23.20;99.90
11497;DHT22;5805;51.542;7.230;2023-08-01T11:50:57;23.20;99.90
11497;DHT22;5805;51.542;7.230;2023-08-01T11:53:24;23.40;99.90
11497;DHT22;5805;51.542;7.230;2023-08-01T11:55:50;23.50;99.90
11497;DHT22;5805;51.542;7.230;2023-08-01T11:58:16;23.60;99.90
11497;DHT22;5805;51.542;7.230;2023-08-01T12:00:41;23.60;99.90
11497;DHT22;5805;51.542;7.230;2023-08-01T12:03:08;23.50;99.90
11497;DHT22;5805;51.542;7.230;2023-08-01T12:05:35;23.40;99.90
11497;DHT22;5805;51.542;7.230;2023-08-01T12:08:10;23.40;99.90
11497;DHT22;5805;51.542;7.230;2023-08-01T12:10:42;23.30;99.90
11497;DHT22;5805;51.542;7.230;2023-08-01T12:13:19;23.20;99.90
11497;DHT22;5805;51.542;7.230;2023-08-01T12:15:46;23.30;99.90
11497;DHT22;5805;51.542;7.230;2023-08-01T12:18:19;23.40;99.90
11497;DHT22;5805;51.542;7.230;2023-08-01T12:20:45;23.60;99.90
11497;DHT22;5805;51.542;7.230;2023-08-01T12:23:11;23.60;99.90
11497;DHT22;5805;51.542;7.230;2023-08-01T12:25:36;23.50;99.90
11497;DHT22;5805;51.542;7.230;2023-08-01T12:28:04;23.40;99.90
11497;DHT22;5805;51.542;7.230;2023-08-01T12:30:31;23.30;99.90
11497;DHT22;5805;51.542;7.230;2023-08-01T12:32:56;23.30;99.90
11497;DHT22;5805;51.542;7.230;2023-08-01T12:35:22;23.20;99.90
11497;DHT22;5805;51.542;7.230;2023-08-01T12:37:48;23.20;99.90
11497;DHT22;5805;51.542;7.230;2023-08-01T12:40:14;23.30;99.90
11497;DHT22;5805;51.542;7.230;2023-08-01T12:42:39;23.30;99.90
11497;DHT22;5805;51.542;7.230;2023-08-01T12:45:08;23.30;99.90
11497;DHT22;5805;51.542;7.230;2023-08-01T12:47:33;23.40;99.90
11497;DHT22;5805;51.542;7.230;2023-08-01T12:49:59;23.40;99.90
11497;DHT22;5805;51.542;7.230;2023-08-01T12:52:25;23.60;99.90
11497;DHT22;5805;51.542;7.230;2023-08-01T12:54:51;23.70;99.90
11497;DHT22;5805;51.542;7.230;2023-08-01T12:57:16;23.80;99.90
11497;DHT22;5805;51.542;7.230;2023-08-01T12:59:42;23.70;99.90
11497;DHT22;5805;51.542;7.230;2023-08-01T13:02:10;23.70;99.90
11497;DHT22;5805;51.542;7.230;2023-08-01T13:04:36;23.80;99.90
11497;DHT22;5805;51.542;7.230;2023-08-01T13:07:01;23.80;99.90
11497;DHT22;5805;51.542;7.230;2023-08-01T13:09:27;23.80;99.90
11497;DHT22;5805;51.542;7.230;2023-08-01T13:11:53;23.80;99.90
11497;DHT22;5805;51.542;7.230;2023-08-01T13:14:19;23.70;99.90
11497;DHT22;5805;51.542;7.230;2023-08-01T13:16:44;23.70;99.90
11497;DHT22;5805;51.542;7.230;2023-08-01T13:19:11;23.80;99.90
11497;DHT22;5805;51.542;7.230;2023-08-01T13:21:37;24.00;99.90
11497;DHT22;5805;51.542;7.230;2023-08-01T13:24:03;24.10;99.90
11497;DHT22;5805;51.542;7.230;2023-08-01T13:26:29;24.00;99.90
11497;DHT22;5805;51.542;7.230;2023-08-01T13:28:54;23.90;99.90
11497;DHT22;5805;51.542;7.230;2023-08-01T13:31:20;23.70;99.90
11497;DHT22;5805;51.542;7.230;2023-08-01T13:33:46;23.50;99.90
11497;DHT22;5805;51.542;7.230;2023-08-01T13:36:13;23.40;99.90
11497;DHT22;5805;51.542;7.230;2023-08-01T13:38:39;23.20;99.90
11497;DHT22;5805;51.542;7.230;2023-08-01T13:41:04;23.10;99.90
11497;DHT22;5805;51.542;7.230;2023-08-01T13:43:30;23.00;99.90
11497;DHT22;5805;51.542;7.230;2023-08-01T13:45:56;23.10;99.90
11497;DHT22;5805;51.542;7.230;2023-08-01T13:48:21;23.00;99.90
11497;DHT22;5805;51.542;7.230;2023-08-01T13:50:47;23.10;99.90
11497;DHT22;5805;51.542;7.230;2023-08-01T13:53:14;23.20;99.90
11497;DHT22;5805;51.542;7.230;2023-08-01T13:55:40;23.10;99.70
11497;DHT22;5805;51.542;7.230;2023-08-01T13:58:06;23.10;99.90
11497;DHT22;5805;51.542;7.230;2023-08-01T14:00:32;23.10;99.90
11497;DHT22;5805;51.542;7.230;2023-08-01T14:02:58;23.10;99.90
11497;DHT22;5805;51.542;7.230;2023-08-01T14:05:24;23.20;99.90
11497;DHT22;5805;51.542;7.230;2023-08-01T14:07:50;23.20;99.40
11497;DHT22;5805;51.542;7.230;2023-08-01T14:10:17;23.30;99.60
11497;DHT22;5805;51.542;7.230;2023-08-01T14:12:43;23.40;98.50
11497;DHT22;5805;51.542;7.230;2023-08-01T14:15:09;23.50;98.30
11497;DHT22;5805;51.542;7.230;2023-08-01T14:17:35;23.60;98.90
11497;DHT22;5805;51.542;7.230;2023-08-01T14:20:01;23.70;96.50
11497;DHT22;5805;51.542;7.230;2023-08-01T14:22:26;23.60;96.70
11497;DHT22;5805;51.542;7.230;2023-08-01T14:24:52;23.50;94.80
11497;DHT22;5805;51.542;7.230;2023-08-01T14:27:19;23.30;95.00
11497;DHT22;5805;51.542;7.230;2023-08-01T14:29:45;23.10;94.60
11497;DHT22;5805;51.542;7.230;2023-08-01T14:32:11;22.90;95.10
11497;DHT22;5805;51.542;7.230;2023-08-01T14:34:36;22.70;96.00
11497;DHT22;5805;51.542;7.230;2023-08-01T14:37:02;22.60;96.60
11497;DHT22;5805;51.542;7.230;2023-08-01T14:39:28;22.50;96.50
11497;DHT22;5805;51.542;7.230;2023-08-01T14:41:53;22.50;97.50
11497;DHT22;5805;51.542;7.230;2023-08-01T14:44:20;22.60;98.40
11497;DHT22;5805;51.542;7.230;2023-08-01T14:46:46;22.60;97.60
11497;DHT22;5805;51.542;7.230;2023-08-01T14:49:12;22.60;98.40
11497;DHT22;5805;51.542;7.230;2023-08-01T14:51:38;22.60;98.30
11497;DHT22;5805;51.542;7.230;2023-08-01T14:54:04;22.70;97.30
11497;DHT22;5805;51.542;7.230;2023-08-01T14:56:29;22.90;97.30
11497;DHT22;5805;51.542;7.230;2023-08-01T14:58:55;22.90;97.40
11497;DHT22;5805;51.542;7.230;2023-08-01T15:01:22;22.90;97.20
11497;DHT22;5805;51.542;7.230;2023-08-01T15:03:48;22.90;96.80
11497;DHT22;5805;51.542;7.230;2023-08-01T15:06:14;22.80;97.60
11497;DHT22;5805;51.542;7.230;2023-08-01T15:08:39;22.80;97.00
11497;DHT22;5805;51.542;7.230;2023-08-01T15:11:06;22.70;96.70
11497;DHT22;5805;51.542;7.230;2023-08-01T15:13:32;22.70;97.60
11497;DHT22;5805;51.542;7.230;2023-08-01T15:15:57;22.80;96.90
11497;DHT22;5805;51.542;7.230;2023-08-01T15:18:24;22.90;96.70
11497;DHT22;5805;51.542;7.230;2023-08-01T15:20:50;22.90;96.70
11497;DHT22;5805;51.542;7.230;2023-08-01T15:23:16;22.80;96.90
11497;DHT22;5805;51.542;7.230;2023-08-01T15:25:50;22.80;97.20
11497;DHT22;5805;51.542;7.230;2023-08-01T15:28:16;22.80;98.30
11497;DHT22;5805;51.542;7.230;2023-08-01T15:30:41;22.80;98.10
11497;DHT22;5805;51.542;7.230;2023-08-01T15:33:07;22.90;98.60
11497;DHT22;5805;51.542;7.230;2023-08-01T15:35:34;23.00;97.60
11497;DHT22;5805;51.542;7.230;2023-08-01T15:38:00;23.10;97.70